sensor_id;sensor_type;location;lat;lon;timestamp;P1;durP1;ratioP1;P2;durP2;ratioP2
69985;SDS011;57328;52.054;5.294;2024-02-26T00:02:24;8.20;;;3.53;;
69985;SDS011;57328;52.054;5.294;2024-02-26T00:04:51;6.63;;;3.47;;
69985;SDS011;57328;52.054;5.294;2024-02-26T00:07:18;6.28;;;3.30;;
69985;SDS011;57328;52.054;5.294;2024-02-26T00:09:46;6.68;;;2.92;;
69985;SDS011;57328;52.054;5.294;2024-02-26T00:12:13;6.93;;;3.60;;
69985;SDS011;57328;52.054;5.294;2024-02-26T00:14:40;8.32;;;3.47;;
69985;SDS011;57328;52.054;5.294;2024-02-26T00:17:07;7.97;;;3.58;;
69985;SDS011;57328;52.054;5.294;2024-02-26T00:19:35;4.68;;;2.53;;
69985;SDS011;57328;52.054;5.294;2024-02-26T00:22:03;9.60;;;3.70;;
69985;SDS011;57328;52.054;5.294;2024-02-26T00:24:30;7.50;;;2.72;;
69985;SDS011;57328;52.054;5.294;2024-02-26T00:26:57;8.80;;;3.47;;
69985;SDS011;57328;52.054;5.294;2024-02-26T00:29:25;7.40;;;3.40;;
69985;SDS011;57328;52.054;5.294;2024-02-26T00:31:52;5.20;;;2.35;;
69985;SDS011;57328;52.054;5.294;2024-02-26T00:34:19;7.28;;;3.08;;
69985;SDS011;57328;52.054;5.294;2024-02-26T00:36:47;8.00;;;2.85;;
69985;SDS011;57328;52.054;5.294;2024-02-26T00:39:14;5.10;;;2.67;;
69985;SDS011;57328;52.054;5.294;2024-02-26T00:41:41;5.47;;;3.00;;
69985;SDS011;57328;52.054;5.294;2024-02-26T00:44:08;9.02;;;3.35;;
69985;SDS011;57328;52.054;5.294;2024-02-26T00:46:36;8.15;;;2.35;;
69985;SDS011;57328;52.054;5.294;2024-02-26T00:49:03;6.75;;;3.20;;
69985;SDS011;57328;52.054;5.294;2024-02-26T00:51:31;9.52;;;2.95;;
69985;SDS011;57328;52.054;5.294;2024-02-26T00:53:58;6.72;;;3.20;;
69985;SDS011;57328;52.054;5.294;2024-02-26T00:56:25;6.25;;;2.72;;
69985;SDS011;57328;52.054;5.294;2024-02-26T00:58:53;5.13;;;2.65;;
69985;SDS011;57328;52.054;5.294;2024-02-26T01:01:20;9.50;;;3.60;;
69985;SDS011;57328;52.054;5.294;2024-02-26T01:03:47;8.45;;;3.67;;
69985;SDS011;57328;52.054;5.294;2024-02-26T01:06:15;4.65;;;2.45;;
69985;SDS011;57328;52.054;5.294;2024-02-26T01:08:42;6.28;;;2.95;;
69985;SDS011;57328;52.054;5.294;2024-02-26T01:11:09;6.10;;;2.85;;
69985;SDS011;57328;52.054;5.294;2024-02-26T01:13:37;6.75;;;3.35;;
69985;SDS011;57328;52.054;5.294;2024-02-26T01:16:04;6.25;;;2.83;;
69985;SDS011;57328;52.054;5.294;2024-02-26T01:18:31;7.85;;;3.22;;
69985;SDS011;57328;52.054;5.294;2024-02-26T01:20:59;6.55;;;2.67;;
69985;SDS011;57328;52.054;5.294;2024-02-26T01:23:26;7.25;;;3.17;;
69985;SDS011;57328;52.054;5.294;2024-02-26T01:25:53;8.57;;;3.80;;
69985;SDS011;57328;52.054;5.294;2024-02-26T01:28:20;8.18;;;3.83;;
69985;SDS011;57328;52.054;5.294;2024-02-26T01:30:48;6.93;;;3.53;;
69985;SDS011;57328;52.054;5.294;2024-02-26T01:33:15;6.78;;;3.17;;
69985;SDS011;57328;52.054;5.294;2024-02-26T01:35:43;5.57;;;2.85;;
69985;SDS011;57328;52.054;5.294;2024-02-26T01:38:10;5.80;;;2.88;;
69985;SDS011;57328;52.054;5.294;2024-02-26T01:40:37;5.63;;;2.53;;
69985;SDS011;57328;52.054;5.294;2024-02-26T01:43:04;5.38;;;2.53;;
69985;SDS011;57328;52.054;5.294;2024-02-26T01:45:32;6.70;;;2.75;;
69985;SDS011;57328;52.054;5.294;2024-02-26T01:47:59;9.90;;;3.72;;
69985;SDS011;57328;52.054;5.294;2024-02-26T01:50:26;6.45;;;2.88;;
69985;SDS011;57328;52.054;5.294;2024-02-26T01:52:54;6.38;;;2.95;;
69985;SDS011;57328;52.054;5.294;2024-02-26T01:55:22;7.30;;;2.83;;
69985;SDS011;57328;52.054;5.294;2024-02-26T01:57:50;8.85;;;3.60;;
69985;SDS011;57328;52.054;5.294;2024-02-26T02:00:19;5.05;;;2.20;;
69985;SDS011;57328;52.054;5.294;2024-02-26T02:02:47;7.80;;;3.25;;
69985;SDS011;57328;52.054;5.294;2024-02-26T02:05:15;9.43;;;4.00;;
69985;SDS011;57328;52.054;5.294;2024-02-26T02:07:45;7.22;;;3.05;;
69985;SDS011;57328;52.054;5.294;2024-02-26T02:10:18;5.40;;;2.40;;
69985;SDS011;57328;52.054;5.294;2024-02-26T02:12:49;9.13;;;3.17;;
69985;SDS011;57328;52.054;5.294;2024-02-26T02:15:16;6.57;;;3.55;;
69985;SDS011;57328;52.054;5.294;2024-02-26T02:17:44;13.68;;;3.25;;
69985;SDS011;57328;52.054;5.294;2024-02-26T02:20:15;9.82;;;3.70;;
69985;SDS011;57328;52.054;5.294;2024-02-26T02:22:46;5.38;;;2.53;;
69985;SDS011;57328;52.054;5.294;2024-02-26T02:25:14;10.68;;;4.18;;
69985;SDS011;57328;52.054;5.294;2024-02-26T02:27:41;7.80;;;3.90;;
69985;SDS011;57328;52.054;5.294;2024-02-26T02:30:09;9.30;;;3.95;;
69985;SDS011;57328;52.054;5.294;2024-02-26T02:32:39;6.93;;;3.20;;
69985;SDS011;57328;52.054;5.294;2024-02-26T02:35:10;5.72;;;2.40;;
69985;SDS011;57328;52.054;5.294;2024-02-26T02:37:37;7.25;;;3.13;;
69985;SDS011;57328;52.054;5.294;2024-02-26T02:40:04;8.15;;;3.65;;
69985;SDS011;57328;52.054;5.294;2024-02-26T02:42:32;6.60;;;2.70;;
69985;SDS011;57328;52.054;5.294;2024-02-26T02:44:59;6.05;;;2.97;;
69985;SDS011;57328;52.054;5.294;2024-02-26T02:47:26;5.57;;;2.75;;
69985;SDS011;57328;52.054;5.294;2024-02-26T02:49:54;9.45;;;3.65;;
69985;SDS011;57328;52.054;5.294;2024-02-26T02:52:21;9.38;;;4.15;;
69985;SDS011;57328;52.054;5.294;2024-02-26T02:54:48;5.97;;;2.67;;
69985;SDS011;57328;52.054;5.294;2024-02-26T02:57:15;9.68;;;4.63;;
69985;SDS011;57328;52.054;5.294;2024-02-26T02:59:43;5.95;;;2.92;;
69985;SDS011;57328;52.054;5.294;2024-02-26T03:02:10;7.88;;;3.50;;
69985;SDS011;57328;52.054;5.294;2024-02-26T03:04:37;8.20;;;4.22;;
69985;SDS011;57328;52.054;5.294;2024-02-26T03:07:04;7.30;;;3.35;;
69985;SDS011;57328;52.054;5.294;2024-02-26T03:09:32;8.65;;;3.80;;
69985;SDS011;57328;52.054;5.294;2024-02-26T03:11:59;8.82;;;4.28;;
69985;SDS011;57328;52.054;5.294;2024-02-26T03:14:27;7.07;;;3.25;;
69985;SDS011;57328;52.054;5.294;2024-02-26T03:16:54;7.95;;;3.65;;
69985;SDS011;57328;52.054;5.294;2024-02-26T03:19:21;9.52;;;3.90;;
69985;SDS011;57328;52.054;5.294;2024-02-26T03:21:50;11.07;;;4.00;;
69985;SDS011;57328;52.054;5.294;2024-02-26T03:24:18;10.82;;;4.82;;
69985;SDS011;57328;52.054;5.294;2024-02-26T03:26:45;7.22;;;3.50;;
69985;SDS011;57328;52.054;5.294;2024-02-26T03:29:12;9.35;;;3.63;;
69985;SDS011;57328;52.054;5.294;2024-02-26T03:31:39;8.45;;;3.75;;
69985;SDS011;57328;52.054;5.294;2024-02-26T03:34:07;10.30;;;3.40;;
69985;SDS011;57328;52.054;5.294;2024-02-26T03:36:35;7.93;;;3.65;;
69985;SDS011;57328;52.054;5.294;2024-02-26T03:39:02;6.65;;;3.17;;
69985;SDS011;57328;52.054;5.294;2024-02-26T03:41:34;7.95;;;3.75;;
69985;SDS011;57328;52.054;5.294;2024-02-26T03:44:01;9.88;;;4.63;;
69985;SDS011;57328;52.054;5.294;2024-02-26T03:46:28;9.10;;;4.38;;
69985;SDS011;57328;52.054;5.294;2024-02-26T03:48:56;9.40;;;3.95;;
69985;SDS011;57328;52.054;5.294;2024-02-26T03:51:23;8.18;;;3.65;;
69985;SDS011;57328;52.054;5.294;2024-02-26T03:53:50;7.60;;;3.30;;
69985;SDS011;57328;52.054;5.294;2024-02-26T03:56:18;10.65;;;4.07;;
69985;SDS011;57328;52.054;5.294;2024-02-26T03:58:46;10.20;;;3.83;;
69985;SDS011;57328;52.054;5.294;2024-02-26T04:01:14;8.95;;;3.90;;
69985;SDS011;57328;52.054;5.294;2024-02-26T04:03:41;9.77;;;4.25;;
69985;SDS011;57328;52.054;5.294;2024-02-26T04:06:10;9.23;;;3.65;;
69985;SDS011;57328;52.054;5.294;2024-02-26T04:08:37;10.15;;;4.22;;
69985;SDS011;57328;52.054;5.294;2024-02-26T04:11:04;9.48;;;4.70;;
69985;SDS011;57328;52.054;5.294;2024-02-26T04:13:35;10.00;;;4.15;;
69985;SDS011;57328;52.054;5.294;2024-02-26T04:16:04;7.32;;;3.20;;
69985;SDS011;57328;52.054;5.294;2024-02-26T04:18:32;9.57;;;4.63;;
69985;SDS011;57328;52.054;5.294;2024-02-26T04:21:00;9.10;;;4.25;;
69985;SDS011;57328;52.054;5.294;2024-02-26T04:23:27;9.30;;;4.63;;
69985;SDS011;57328;52.054;5.294;2024-02-26T04:25:55;8.40;;;3.88;;
69985;SDS011;57328;52.054;5.294;2024-02-26T04:28:22;10.02;;;4.28;;
69985;SDS011;57328;52.054;5.294;2024-02-26T04:30:52;9.95;;;4.00;;
69985;SDS011;57328;52.054;5.294;2024-02-26T04:33:19;8.55;;;3.47;;
69985;SDS011;57328;52.054;5.294;2024-02-26T04:35:47;8.43;;;3.78;;
69985;SDS011;57328;52.054;5.294;2024-02-26T04:38:14;7.78;;;2.92;;
69985;SDS011;57328;52.054;5.294;2024-02-26T04:40:41;10.32;;;4.80;;
69985;SDS011;57328;52.054;5.294;2024-02-26T04:43:08;13.18;;;5.20;;
69985;SDS011;57328;52.054;5.294;2024-02-26T04:45:36;11.20;;;4.28;;
69985;SDS011;57328;52.054;5.294;2024-02-26T04:48:03;8.07;;;3.72;;
69985;SDS011;57328;52.054;5.294;2024-02-26T04:50:30;10.20;;;3.95;;
69985;SDS011;57328;52.054;5.294;2024-02-26T04:52:58;11.88;;;4.97;;
69985;SDS011;57328;52.054;5.294;2024-02-26T04:55:25;11.15;;;5.10;;
69985;SDS011;57328;52.054;5.294;2024-02-26T04:57:52;7.97;;;3.75;;
69985;SDS011;57328;52.054;5.294;2024-02-26T05:00:19;8.27;;;3.42;;
69985;SDS011;57328;52.054;5.294;2024-02-26T05:02:47;6.93;;;3.05;;
69985;SDS011;57328;52.054;5.294;2024-02-26T05:05:14;8.63;;;4.13;;
69985;SDS011;57328;52.054;5.294;2024-02-26T05:07:41;8.00;;;3.53;;
69985;SDS011;57328;52.054;5.294;2024-02-26T05:10:09;9.68;;;4.35;;
69985;SDS011;57328;52.054;5.294;2024-02-26T05:12:37;8.63;;;3.45;;
69985;SDS011;57328;52.054;5.294;2024-02-26T05:15:05;8.20;;;3.25;;
69985;SDS011;57328;52.054;5.294;2024-02-26T05:17:32;8.75;;;3.72;;
69985;SDS011;57328;52.054;5.294;2024-02-26T05:20:00;8.80;;;3.92;;
69985;SDS011;57328;52.054;5.294;2024-02-26T05:22:27;10.02;;;3.72;;
69985;SDS011;57328;52.054;5.294;2024-02-26T05:24:54;9.15;;;3.97;;
69985;SDS011;57328;52.054;5.294;2024-02-26T05:27:22;6.88;;;3.22;;
69985;SDS011;57328;52.054;5.294;2024-02-26T05:29:51;8.85;;;3.38;;
69985;SDS011;57328;52.054;5.294;2024-02-26T05:32:20;7.15;;;3.95;;
69985;SDS011;57328;52.054;5.294;2024-02-26T05:34:47;7.93;;;3.38;;
69985;SDS011;57328;52.054;5.294;2024-02-26T05:37:15;6.78;;;3.65;;
69985;SDS011;57328;52.054;5.294;2024-02-26T05:39:42;6.65;;;2.90;;
69985;SDS011;57328;52.054;5.294;2024-02-26T05:42:09;8.38;;;3.63;;
69985;SDS011;57328;52.054;5.294;2024-02-26T05:44:36;8.70;;;3.65;;
69985;SDS011;57328;52.054;5.294;2024-02-26T05:47:04;6.50;;;3.47;;
69985;SDS011;57328;52.054;5.294;2024-02-26T05:49:32;10.52;;;4.32;;
69985;SDS011;57328;52.054;5.294;2024-02-26T05:52:00;7.28;;;3.53;;
69985;SDS011;57328;52.054;5.294;2024-02-26T05:54:28;8.23;;;3.90;;
69985;SDS011;57328;52.054;5.294;2024-02-26T05:56:57;8.68;;;3.90;;
69985;SDS011;57328;52.054;5.294;2024-02-26T05:59:24;10.52;;;4.80;;
69985;SDS011;57328;52.054;5.294;2024-02-26T06:01:51;7.82;;;3.50;;
69985;SDS011;57328;52.054;5.294;2024-02-26T06:04:18;8.65;;;4.05;;
69985;SDS011;57328;52.054;5.294;2024-02-26T06:06:46;10.40;;;3.90;;
69985;SDS011;57328;52.054;5.294;2024-02-26T06:09:13;9.52;;;4.18;;
69985;SDS011;57328;52.054;5.294;2024-02-26T06:11:41;8.68;;;3.95;;
69985;SDS011;57328;52.054;5.294;2024-02-26T06:14:08;9.27;;;3.97;;
69985;SDS011;57328;52.054;5.294;2024-02-26T06:16:36;9.02;;;4.22;;
69985;SDS011;57328;52.054;5.294;2024-02-26T06:19:03;7.93;;;3.45;;
69985;SDS011;57328;52.054;5.294;2024-02-26T06:21:32;13.57;;;4.90;;
69985;SDS011;57328;52.054;5.294;2024-02-26T06:23:59;11.35;;;5.22;;
69985;SDS011;57328;52.054;5.294;2024-02-26T06:26:27;10.40;;;4.35;;
69985;SDS011;57328;52.054;5.294;2024-02-26T06:28:59;9.15;;;5.32;;
69985;SDS011;57328;52.054;5.294;2024-02-26T06:31:26;11.02;;;4.68;;
69985;SDS011;57328;52.054;5.294;2024-02-26T06:33:54;10.30;;;4.85;;
69985;SDS011;57328;52.054;5.294;2024-02-26T06:36:22;11.25;;;4.63;;
69985;SDS011;57328;52.054;5.294;2024-02-26T06:38:49;9.88;;;4.13;;
69985;SDS011;57328;52.054;5.294;2024-02-26T06:41:18;11.55;;;5.43;;
69985;SDS011;57328;52.054;5.294;2024-02-26T06:43:45;13.35;;;5.78;;
69985;SDS011;57328;52.054;5.294;2024-02-26T06:46:12;10.75;;;4.28;;
69985;SDS011;57328;52.054;5.294;2024-02-26T06:48:40;11.82;;;4.68;;
69985;SDS011;57328;52.054;5.294;2024-02-26T06:51:07;11.10;;;4.13;;
69985;SDS011;57328;52.054;5.294;2024-02-26T06:53:34;14.02;;;5.32;;
69985;SDS011;57328;52.054;5.294;2024-02-26T06:56:01;10.93;;;4.78;;
69985;SDS011;57328;52.054;5.294;2024-02-26T06:58:30;12.98;;;5.40;;
69985;SDS011;57328;52.054;5.294;2024-02-26T07:00:57;12.00;;;4.43;;
69985;SDS011;57328;52.054;5.294;2024-02-26T07:03:24;13.73;;;6.28;;
69985;SDS011;57328;52.054;5.294;2024-02-26T07:05:52;15.00;;;5.28;;
69985;SDS011;57328;52.054;5.294;2024-02-26T07:08:19;13.93;;;5.85;;
69985;SDS011;57328;52.054;5.294;2024-02-26T07:10:47;11.55;;;4.70;;
69985;SDS011;57328;52.054;5.294;2024-02-26T07:13:14;11.52;;;4.78;;
69985;SDS011;57328;52.054;5.294;2024-02-26T07:15:42;13.10;;;6.28;;
69985;SDS011;57328;52.054;5.294;2024-02-26T07:18:09;13.30;;;6.18;;
69985;SDS011;57328;52.054;5.294;2024-02-26T07:20:37;17.67;;;5.75;;
69985;SDS011;57328;52.054;5.294;2024-02-26T07:23:04;15.57;;;6.60;;
69985;SDS011;57328;52.054;5.294;2024-02-26T07:25:33;15.80;;;7.22;;
69985;SDS011;57328;52.054;5.294;2024-02-26T07:28:00;15.85;;;5.88;;
69985;SDS011;57328;52.054;5.294;2024-02-26T07:30:27;14.48;;;6.78;;
69985;SDS011;57328;52.054;5.294;2024-02-26T07:32:55;12.00;;;5.57;;
69985;SDS011;57328;52.054;5.294;2024-02-26T07:35:23;11.15;;;4.75;;
69985;SDS011;57328;52.054;5.294;2024-02-26T07:37:50;15.75;;;6.30;;
69985;SDS011;57328;52.054;5.294;2024-02-26T07:40:17;16.63;;;6.55;;
69985;SDS011;57328;52.054;5.294;2024-02-26T07:42:45;17.58;;;7.60;;
69985;SDS011;57328;52.054;5.294;2024-02-26T07:45:13;17.33;;;7.05;;
69985;SDS011;57328;52.054;5.294;2024-02-26T07:47:42;16.52;;;6.35;;
69985;SDS011;57328;52.054;5.294;2024-02-26T07:50:09;16.98;;;6.93;;
69985;SDS011;57328;52.054;5.294;2024-02-26T07:52:38;14.52;;;7.03;;
69985;SDS011;57328;52.054;5.294;2024-02-26T07:55:06;17.35;;;6.88;;
69985;SDS011;57328;52.054;5.294;2024-02-26T07:57:33;21.30;;;7.88;;
69985;SDS011;57328;52.054;5.294;2024-02-26T08:00:02;21.58;;;8.93;;
69985;SDS011;57328;52.054;5.294;2024-02-26T08:02:29;15.48;;;6.60;;
69985;SDS011;57328;52.054;5.294;2024-02-26T08:04:57;19.48;;;8.18;;
69985;SDS011;57328;52.054;5.294;2024-02-26T08:07:25;19.05;;;7.72;;
69985;SDS011;57328;52.054;5.294;2024-02-26T08:09:52;19.60;;;7.72;;
69985;SDS011;57328;52.054;5.294;2024-02-26T08:12:20;20.30;;;9.50;;
69985;SDS011;57328;52.054;5.294;2024-02-26T08:14:48;21.52;;;9.07;;
69985;SDS011;57328;52.054;5.294;2024-02-26T08:17:29;19.25;;;8.05;;
69985;SDS011;57328;52.054;5.294;2024-02-26T08:20:10;19.13;;;7.90;;
69985;SDS011;57328;52.054;5.294;2024-02-26T08:22:51;19.38;;;9.45;;
69985;SDS011;57328;52.054;5.294;2024-02-26T08:25:32;16.65;;;6.85;;
69985;SDS011;57328;52.054;5.294;2024-02-26T08:28:13;24.92;;;8.52;;
69985;SDS011;57328;52.054;5.294;2024-02-26T08:30:54;21.20;;;7.63;;
69985;SDS011;57328;52.054;5.294;2024-02-26T08:33:35;15.00;;;7.05;;
69985;SDS011;57328;52.054;5.294;2024-02-26T08:36:16;19.27;;;8.38;;
69985;SDS011;57328;52.054;5.294;2024-02-26T08:38:57;17.20;;;7.57;;
69985;SDS011;57328;52.054;5.294;2024-02-26T08:41:38;18.48;;;8.18;;
69985;SDS011;57328;52.054;5.294;2024-02-26T08:44:19;20.88;;;9.75;;
69985;SDS011;57328;52.054;5.294;2024-02-26T08:47:01;20.10;;;7.20;;
69985;SDS011;57328;52.054;5.294;2024-02-26T08:49:44;18.45;;;7.30;;
69985;SDS011;57328;52.054;5.294;2024-02-26T08:52:25;16.20;;;7.75;;
69985;SDS011;57328;52.054;5.294;2024-02-26T08:55:06;14.73;;;7.03;;
69985;SDS011;57328;52.054;5.294;2024-02-26T08:57:49;11.40;;;4.80;;
69985;SDS011;57328;52.054;5.294;2024-02-26T09:00:30;15.00;;;6.50;;
69985;SDS011;57328;52.054;5.294;2024-02-26T09:03:11;15.65;;;6.85;;
69985;SDS011;57328;52.054;5.294;2024-02-26T09:05:52;13.48;;;6.25;;
69985;SDS011;57328;52.054;5.294;2024-02-26T09:08:33;15.48;;;6.30;;
69985;SDS011;57328;52.054;5.294;2024-02-26T09:11:04;11.45;;;5.15;;
69985;SDS011;57328;52.054;5.294;2024-02-26T09:13:31;14.50;;;6.32;;
69985;SDS011;57328;52.054;5.294;2024-02-26T09:15:59;10.48;;;4.78;;
69985;SDS011;57328;52.054;5.294;2024-02-26T09:18:40;9.77;;;4.43;;
69985;SDS011;57328;52.054;5.294;2024-02-26T09:21:21;15.63;;;5.80;;
69985;SDS011;57328;52.054;5.294;2024-02-26T09:24:06;11.13;;;4.75;;
69985;SDS011;57328;52.054;5.294;2024-02-26T09:26:47;12.23;;;5.22;;
69985;SDS011;57328;52.054;5.294;2024-02-26T09:29:28;11.32;;;5.40;;
69985;SDS011;57328;52.054;5.294;2024-02-26T09:32:09;11.35;;;4.78;;
69985;SDS011;57328;52.054;5.294;2024-02-26T09:34:50;10.48;;;4.90;;
69985;SDS011;57328;52.054;5.294;2024-02-26T09:37:31;9.10;;;4.70;;
69985;SDS011;57328;52.054;5.294;2024-02-26T09:40:14;9.75;;;4.03;;
69985;SDS011;57328;52.054;5.294;2024-02-26T09:42:59;13.52;;;5.35;;
69985;SDS011;57328;52.054;5.294;2024-02-26T09:45:41;14.30;;;5.90;;
69985;SDS011;57328;52.054;5.294;2024-02-26T09:48:23;10.55;;;4.38;;
69985;SDS011;57328;52.054;5.294;2024-02-26T09:51:04;9.52;;;4.30;;
69985;SDS011;57328;52.054;5.294;2024-02-26T09:53:46;13.65;;;5.40;;
69985;SDS011;57328;52.054;5.294;2024-02-26T09:56:27;10.25;;;5.18;;
69985;SDS011;57328;52.054;5.294;2024-02-26T09:59:10;9.90;;;4.60;;
69985;SDS011;57328;52.054;5.294;2024-02-26T10:01:53;7.35;;;3.20;;
69985;SDS011;57328;52.054;5.294;2024-02-26T10:07:16;8.05;;;3.75;;
69985;SDS011;57328;52.054;5.294;2024-02-26T10:09:57;8.77;;;3.83;;
69985;SDS011;57328;52.054;5.294;2024-02-26T10:12:38;9.43;;;4.53;;
69985;SDS011;57328;52.054;5.294;2024-02-26T10:15:19;11.65;;;4.65;;
69985;SDS011;57328;52.054;5.294;2024-02-26T10:18:03;9.90;;;3.97;;
69985;SDS011;57328;52.054;5.294;2024-02-26T10:20:58;9.90;;;3.78;;
69985;SDS011;57328;52.054;5.294;2024-02-26T10:23:40;8.00;;;3.55;;
69985;SDS011;57328;52.054;5.294;2024-02-26T10:26:12;11.18;;;4.10;;
69985;SDS011;57328;52.054;5.294;2024-02-26T10:31:34;12.70;;;3.85;;
69985;SDS011;57328;52.054;5.294;2024-02-26T10:34:16;9.85;;;4.18;;
69985;SDS011;57328;52.054;5.294;2024-02-26T10:36:57;7.97;;;3.92;;
69985;SDS011;57328;52.054;5.294;2024-02-26T10:39:38;10.15;;;3.63;;
69985;SDS011;57328;52.054;5.294;2024-02-26T10:42:19;8.73;;;4.18;;
69985;SDS011;57328;52.054;5.294;2024-02-26T10:45:00;8.32;;;3.45;;
69985;SDS011;57328;52.054;5.294;2024-02-26T10:47:42;11.65;;;4.53;;
69985;SDS011;57328;52.054;5.294;2024-02-26T10:50:25;9.05;;;3.70;;
69985;SDS011;57328;52.054;5.294;2024-02-26T10:53:10;11.55;;;4.50;;
69985;SDS011;57328;52.054;5.294;2024-02-26T10:55:45;10.20;;;4.85;;
69985;SDS011;57328;52.054;5.294;2024-02-26T10:58:13;8.75;;;3.33;;
69985;SDS011;57328;52.054;5.294;2024-02-26T11:00:41;11.50;;;4.50;;
69985;SDS011;57328;52.054;5.294;2024-02-26T11:03:09;9.15;;;3.78;;
69985;SDS011;57328;52.054;5.294;2024-02-26T11:05:38;8.02;;;2.33;;
69985;SDS011;57328;52.054;5.294;2024-02-26T11:08:19;10.95;;;4.10;;
69985;SDS011;57328;52.054;5.294;2024-02-26T11:11:01;6.70;;;2.83;;
69985;SDS011;57328;52.054;5.294;2024-02-26T11:13:30;5.88;;;2.67;;
69985;SDS011;57328;52.054;5.294;2024-02-26T11:16:02;9.77;;;4.22;;
69985;SDS011;57328;52.054;5.294;2024-02-26T11:18:31;10.60;;;3.78;;
69985;SDS011;57328;52.054;5.294;2024-02-26T11:21:01;7.25;;;3.75;;
69985;SDS011;57328;52.054;5.294;2024-02-26T11:23:30;14.85;;;3.40;;
69985;SDS011;57328;52.054;5.294;2024-02-26T11:26:01;6.57;;;2.90;;
69985;SDS011;57328;52.054;5.294;2024-02-26T11:28:29;5.75;;;2.25;;
69985;SDS011;57328;52.054;5.294;2024-02-26T11:30:58;12.45;;;4.85;;
69985;SDS011;57328;52.054;5.294;2024-02-26T11:33:26;6.53;;;3.67;;
69985;SDS011;57328;52.054;5.294;2024-02-26T11:35:54;9.60;;;4.20;;
69985;SDS011;57328;52.054;5.294;2024-02-26T11:41:18;8.23;;;3.42;;
69985;SDS011;57328;52.054;5.294;2024-02-26T11:44:01;7.50;;;3.45;;
69985;SDS011;57328;52.054;5.294;2024-02-26T11:46:43;8.00;;;3.17;;
69985;SDS011;57328;52.054;5.294;2024-02-26T11:52:08;9.48;;;4.47;;
69985;SDS011;57328;52.054;5.294;2024-02-26T11:54:53;7.43;;;3.22;;
69985;SDS011;57328;52.054;5.294;2024-02-26T11:57:38;7.90;;;4.07;;
69985;SDS011;57328;52.054;5.294;2024-02-26T12:00:19;10.40;;;4.03;;
69985;SDS011;57328;52.054;5.294;2024-02-26T12:03:03;8.05;;;3.80;;
69985;SDS011;57328;52.054;5.294;2024-02-26T12:05:48;10.00;;;4.50;;
69985;SDS011;57328;52.054;5.294;2024-02-26T12:08:29;9.02;;;4.30;;
69985;SDS011;57328;52.054;5.294;2024-02-26T12:11:14;9.50;;;4.00;;
69985;SDS011;57328;52.054;5.294;2024-02-26T12:13:56;10.00;;;4.13;;
69985;SDS011;57328;52.054;5.294;2024-02-26T12:16:38;9.30;;;3.70;;
69985;SDS011;57328;52.054;5.294;2024-02-26T12:19:19;11.45;;;4.32;;
69985;SDS011;57328;52.054;5.294;2024-02-26T12:22:00;11.38;;;4.68;;
69985;SDS011;57328;52.054;5.294;2024-02-26T12:24:42;12.40;;;5.20;;
69985;SDS011;57328;52.054;5.294;2024-02-26T12:27:23;8.93;;;3.72;;
69985;SDS011;57328;52.054;5.294;2024-02-26T12:30:04;8.50;;;4.15;;
69985;SDS011;57328;52.054;5.294;2024-02-26T12:32:47;11.05;;;5.07;;
69985;SDS011;57328;52.054;5.294;2024-02-26T12:35:30;10.55;;;4.60;;
69985;SDS011;57328;52.054;5.294;2024-02-26T12:38:12;6.95;;;3.42;;
69985;SDS011;57328;52.054;5.294;2024-02-26T12:40:53;11.32;;;3.97;;
69985;SDS011;57328;52.054;5.294;2024-02-26T12:43:35;8.50;;;4.05;;
69985;SDS011;57328;52.054;5.294;2024-02-26T12:46:03;8.20;;;3.65;;
69985;SDS011;57328;52.054;5.294;2024-02-26T12:48:32;7.70;;;3.92;;
69985;SDS011;57328;52.054;5.294;2024-02-26T12:51:00;8.50;;;3.88;;
69985;SDS011;57328;52.054;5.294;2024-02-26T12:53:28;10.60;;;4.43;;
69985;SDS011;57328;52.054;5.294;2024-02-26T12:55:56;8.60;;;3.78;;
69985;SDS011;57328;52.054;5.294;2024-02-26T12:58:23;9.13;;;3.50;;
69985;SDS011;57328;52.054;5.294;2024-02-26T13:00:55;11.80;;;4.35;;
69985;SDS011;57328;52.054;5.294;2024-02-26T13:03:23;7.53;;;3.08;;
69985;SDS011;57328;52.054;5.294;2024-02-26T13:06:05;9.00;;;3.50;;
69985;SDS011;57328;52.054;5.294;2024-02-26T13:08:46;18.23;;;5.10;;
69985;SDS011;57328;52.054;5.294;2024-02-26T13:11:28;11.13;;;3.53;;
69985;SDS011;57328;52.054;5.294;2024-02-26T13:14:20;23.85;;;4.25;;
69985;SDS011;57328;52.054;5.294;2024-02-26T13:17:01;15.88;;;5.28;;
69985;SDS011;57328;52.054;5.294;2024-02-26T13:22:23;8.48;;;3.67;;
69985;SDS011;57328;52.054;5.294;2024-02-26T13:25:04;10.30;;;4.13;;
69985;SDS011;57328;52.054;5.294;2024-02-26T13:27:48;7.38;;;3.35;;
69985;SDS011;57328;52.054;5.294;2024-02-26T13:30:29;10.93;;;5.43;;
69985;SDS011;57328;52.054;5.294;2024-02-26T13:33:11;12.75;;;4.32;;
69985;SDS011;57328;52.054;5.294;2024-02-26T13:35:52;14.52;;;4.70;;
69985;SDS011;57328;52.054;5.294;2024-02-26T13:38:34;6.85;;;3.13;;
69985;SDS011;57328;52.054;5.294;2024-02-26T13:41:15;9.40;;;4.40;;
69985;SDS011;57328;52.054;5.294;2024-02-26T13:43:56;11.07;;;4.97;;
69985;SDS011;57328;52.054;5.294;2024-02-26T13:46:38;11.18;;;4.57;;
69985;SDS011;57328;52.054;5.294;2024-02-26T13:49:19;9.23;;;4.22;;
69985;SDS011;57328;52.054;5.294;2024-02-26T13:52:00;8.13;;;3.70;;
69985;SDS011;57328;52.054;5.294;2024-02-26T13:54:41;11.10;;;6.80;;
69985;SDS011;57328;52.054;5.294;2024-02-26T13:57:22;7.93;;;3.00;;
69985;SDS011;57328;52.054;5.294;2024-02-26T14:00:03;19.95;;;6.88;;
69985;SDS011;57328;52.054;5.294;2024-02-26T14:02:46;7.15;;;3.85;;
69985;SDS011;57328;52.054;5.294;2024-02-26T14:05:27;8.43;;;3.05;;
69985;SDS011;57328;52.054;5.294;2024-02-26T14:08:08;7.82;;;3.33;;
69985;SDS011;57328;52.054;5.294;2024-02-26T14:10:49;8.43;;;4.38;;
69985;SDS011;57328;52.054;5.294;2024-02-26T14:13:30;10.48;;;3.85;;
69985;SDS011;57328;52.054;5.294;2024-02-26T14:16:11;8.43;;;3.80;;
69985;SDS011;57328;52.054;5.294;2024-02-26T14:18:53;7.68;;;2.72;;
69985;SDS011;57328;52.054;5.294;2024-02-26T14:21:34;9.48;;;4.18;;
69985;SDS011;57328;52.054;5.294;2024-02-26T14:24:15;7.05;;;3.13;;
69985;SDS011;57328;52.054;5.294;2024-02-26T14:26:57;9.15;;;4.30;;
69985;SDS011;57328;52.054;5.294;2024-02-26T14:29:25;7.57;;;3.05;;
69985;SDS011;57328;52.054;5.294;2024-02-26T14:31:52;6.43;;;2.47;;
69985;SDS011;57328;52.054;5.294;2024-02-26T14:34:20;7.35;;;3.22;;
69985;SDS011;57328;52.054;5.294;2024-02-26T14:36:48;4.93;;;2.78;;
69985;SDS011;57328;52.054;5.294;2024-02-26T14:39:29;5.03;;;1.70;;
69985;SDS011;57328;52.054;5.294;2024-02-26T14:42:11;5.55;;;2.88;;
69985;SDS011;57328;52.054;5.294;2024-02-26T14:44:52;5.57;;;2.10;;
69985;SDS011;57328;52.054;5.294;2024-02-26T14:47:33;5.85;;;2.45;;
69985;SDS011;57328;52.054;5.294;2024-02-26T14:50:14;7.38;;;3.38;;
69985;SDS011;57328;52.054;5.294;2024-02-26T14:52:55;4.95;;;2.38;;
69985;SDS011;57328;52.054;5.294;2024-02-26T14:55:37;9.80;;;3.28;;
69985;SDS011;57328;52.054;5.294;2024-02-26T14:58:18;6.55;;;3.08;;
69985;SDS011;57328;52.054;5.294;2024-02-26T15:03:40;5.13;;;3.03;;
69985;SDS011;57328;52.054;5.294;2024-02-26T15:06:21;6.40;;;2.60;;
69985;SDS011;57328;52.054;5.294;2024-02-26T15:09:03;5.47;;;2.55;;
69985;SDS011;57328;52.054;5.294;2024-02-26T15:11:44;3.22;;;1.95;;
69985;SDS011;57328;52.054;5.294;2024-02-26T15:14:25;5.10;;;1.67;;
69985;SDS011;57328;52.054;5.294;2024-02-26T15:17:06;5.50;;;2.50;;
69985;SDS011;57328;52.054;5.294;2024-02-26T15:19:50;4.13;;;2.17;;
69985;SDS011;57328;52.054;5.294;2024-02-26T15:22:31;5.47;;;2.58;;
69985;SDS011;57328;52.054;5.294;2024-02-26T15:25:12;5.53;;;2.13;;
69985;SDS011;57328;52.054;5.294;2024-02-26T15:27:53;6.05;;;3.42;;
69985;SDS011;57328;52.054;5.294;2024-02-26T15:30:34;5.30;;;2.28;;
69985;SDS011;57328;52.054;5.294;2024-02-26T15:33:15;2.85;;;1.67;;